sensor_id;sensor_type;location;lat;lon;timestamp;P1;durP1;ratioP1;P2;durP2;ratioP2
61531;SDS011;47397;48.194;11.632;2023-05-27T00:00:22;10.13;;;7.43;;
61531;SDS011;47397;48.194;11.632;2023-05-27T00:01:22;9.40;;;7.38;;
61531;SDS011;47397;48.194;11.632;2023-05-27T00:02:23;11.05;;;7.15;;
61531;SDS011;47397;48.194;11.632;2023-05-27T00:03:25;9.95;;;6.90;;
61531;SDS011;47397;48.194;11.632;2023-05-27T00:04:25;10.10;;;7.50;;
61531;SDS011;47397;48.194;11.632;2023-05-27T00:05:25;9.52;;;7.70;;
61531;SDS011;47397;48.194;11.632;2023-05-27T00:06:26;9.52;;;7.07;;
61531;SDS011;47397;48.194;11.632;2023-05-27T00:07:26;9.95;;;7.70;;
61531;SDS011;47397;48.194;11.632;2023-05-27T00:08:27;8.35;;;7.22;;
61531;SDS011;47397;48.194;11.632;2023-05-27T00:09:27;9.90;;;7.30;;
61531;SDS011;47397;48.194;11.632;2023-05-27T00:10:28;10.60;;;7.22;;
61531;SDS011;47397;48.194;11.632;2023-05-27T00:11:28;8.82;;;7.00;;
61531;SDS011;47397;48.194;11.632;2023-05-27T00:12:29;10.10;;;7.18;;
61531;SDS011;47397;48.194;11.632;2023-05-27T00:13:29;10.20;;;7.15;;
61531;SDS011;47397;48.194;11.632;2023-05-27T00:14:29;8.23;;;6.38;;
61531;SDS011;47397;48.194;11.632;2023-05-27T00:15:30;10.63;;;7.82;;
61531;SDS011;47397;48.194;11.632;2023-05-27T00:16:30;9.68;;;7.40;;
61531;SDS011;47397;48.194;11.632;2023-05-27T00:17:31;9.55;;;7.40;;
61531;SDS011;47397;48.194;11.632;2023-05-27T00:18:32;8.93;;;7.35;;
61531;SDS011;47397;48.194;11.632;2023-05-27T00:19:33;9.95;;;7.22;;
61531;SDS011;47397;48.194;11.632;2023-05-27T00:20:33;9.50;;;7.40;;
61531;SDS011;47397;48.194;11.632;2023-05-27T00:21:33;10.48;;;7.35;;
61531;SDS011;47397;48.194;11.632;2023-05-27T00:22:34;11.40;;;7.78;;
61531;SDS011;47397;48.194;11.632;2023-05-27T00:23:34;9.93;;;7.75;;
61531;SDS011;47397;48.194;11.632;2023-05-27T00:24:35;11.05;;;7.32;;
61531;SDS011;47397;48.194;11.632;2023-05-27T00:25:35;10.70;;;7.43;;
61531;SDS011;47397;48.194;11.632;2023-05-27T00:26:35;9.75;;;7.25;;
61531;SDS011;47397;48.194;11.632;2023-05-27T00:27:36;9.85;;;7.90;;
61531;SDS011;47397;48.194;11.632;2023-05-27T00:28:36;11.52;;;7.68;;
61531;SDS011;47397;48.194;11.632;2023-05-27T00:29:37;8.85;;;7.43;;
61531;SDS011;47397;48.194;11.632;2023-05-27T00:30:37;9.07;;;6.90;;
61531;SDS011;47397;48.194;11.632;2023-05-27T00:31:38;10.52;;;7.53;;
61531;SDS011;47397;48.194;11.632;2023-05-27T00:32:38;9.30;;;7.82;;
61531;SDS011;47397;48.194;11.632;2023-05-27T00:33:40;9.82;;;7.15;;
61531;SDS011;47397;48.194;11.632;2023-05-27T00:34:40;9.77;;;7.63;;
61531;SDS011;47397;48.194;11.632;2023-05-27T00:35:41;12.80;;;8.13;;
61531;SDS011;47397;48.194;11.632;2023-05-27T00:36:41;10.98;;;7.72;;
61531;SDS011;47397;48.194;11.632;2023-05-27T00:37:42;9.25;;;7.38;;
61531;SDS011;47397;48.194;11.632;2023-05-27T00:38:42;9.52;;;7.75;;
61531;SDS011;47397;48.194;11.632;2023-05-27T00:39:42;9.02;;;7.80;;
61531;SDS011;47397;48.194;11.632;2023-05-27T00:40:43;11.50;;;8.30;;
61531;SDS011;47397;48.194;11.632;2023-05-27T00:41:46;12.43;;;8.48;;
61531;SDS011;47397;48.194;11.632;2023-05-27T00:42:48;10.27;;;7.75;;
61531;SDS011;47397;48.194;11.632;2023-05-27T00:43:48;9.85;;;7.18;;
61531;SDS011;47397;48.194;11.632;2023-05-27T00:44:49;10.15;;;7.57;;
61531;SDS011;47397;48.194;11.632;2023-05-27T00:45:49;8.55;;;7.40;;
61531;SDS011;47397;48.194;11.632;2023-05-27T00:46:50;11.27;;;8.18;;
61531;SDS011;47397;48.194;11.632;2023-05-27T00:47:50;9.00;;;7.60;;
61531;SDS011;47397;48.194;11.632;2023-05-27T00:48:52;9.32;;;7.50;;
61531;SDS011;47397;48.194;11.632;2023-05-27T00:49:52;8.93;;;7.75;;
61531;SDS011;47397;48.194;11.632;2023-05-27T00:50:53;8.68;;;7.32;;
61531;SDS011;47397;48.194;11.632;2023-05-27T00:51:54;9.68;;;7.25;;
61531;SDS011;47397;48.194;11.632;2023-05-27T00:52:54;10.90;;;7.65;;
61531;SDS011;47397;48.194;11.632;2023-05-27T00:53:54;8.88;;;7.70;;
61531;SDS011;47397;48.194;11.632;2023-05-27T00:54:55;10.32;;;8.13;;
61531;SDS011;47397;48.194;11.632;2023-05-27T00:55:55;11.45;;;8.13;;
61531;SDS011;47397;48.194;11.632;2023-05-27T00:56:59;8.52;;;7.60;;
61531;SDS011;47397;48.194;11.632;2023-05-27T00:58:00;10.75;;;7.60;;
61531;SDS011;47397;48.194;11.632;2023-05-27T00:59:01;9.25;;;7.32;;
61531;SDS011;47397;48.194;11.632;2023-05-27T01:00:02;10.57;;;8.10;;
61531;SDS011;47397;48.194;11.632;2023-05-27T01:01:03;10.82;;;7.88;;
61531;SDS011;47397;48.194;11.632;2023-05-27T01:02:04;9.68;;;7.60;;
61531;SDS011;47397;48.194;11.632;2023-05-27T01:03:05;9.65;;;8.32;;
61531;SDS011;47397;48.194;11.632;2023-05-27T01:04:07;10.38;;;8.05;;
61531;SDS011;47397;48.194;11.632;2023-05-27T01:05:08;10.98;;;7.47;;
61531;SDS011;47397;48.194;11.632;2023-05-27T01:07:29;8.80;;;7.72;;
61531;SDS011;47397;48.194;11.632;2023-05-27T01:08:42;10.57;;;7.38;;
61531;SDS011;47397;48.194;11.632;2023-05-27T01:09:52;11.07;;;8.10;;
61531;SDS011;47397;48.194;11.632;2023-05-27T01:10:58;10.68;;;7.35;;
61531;SDS011;47397;48.194;11.632;2023-05-27T01:11:59;11.35;;;7.90;;
61531;SDS011;47397;48.194;11.632;2023-05-27T01:13:06;10.30;;;7.97;;
61531;SDS011;47397;48.194;11.632;2023-05-27T01:14:13;12.05;;;8.32;;
61531;SDS011;47397;48.194;11.632;2023-05-27T01:15:14;11.55;;;8.15;;
61531;SDS011;47397;48.194;11.632;2023-05-27T01:16:15;11.18;;;8.13;;
61531;SDS011;47397;48.194;11.632;2023-05-27T01:17:18;9.73;;;7.60;;
61531;SDS011;47397;48.194;11.632;2023-05-27T01:18:18;10.63;;;7.63;;
61531;SDS011;47397;48.194;11.632;2023-05-27T01:19:25;10.27;;;8.32;;
61531;SDS011;47397;48.194;11.632;2023-05-27T01:20:27;9.80;;;8.40;;
61531;SDS011;47397;48.194;11.632;2023-05-27T01:21:29;9.90;;;8.75;;
61531;SDS011;47397;48.194;11.632;2023-05-27T01:22:31;11.90;;;8.30;;
61531;SDS011;47397;48.194;11.632;2023-05-27T01:23:32;8.85;;;7.25;;
61531;SDS011;47397;48.194;11.632;2023-05-27T01:24:32;10.38;;;8.00;;
61531;SDS011;47397;48.194;11.632;2023-05-27T01:25:33;11.15;;;8.52;;
61531;SDS011;47397;48.194;11.632;2023-05-27T01:26:33;10.73;;;8.50;;
61531;SDS011;47397;48.194;11.632;2023-05-27T01:27:34;10.95;;;8.00;;
61531;SDS011;47397;48.194;11.632;2023-05-27T01:28:34;11.88;;;7.82;;
61531;SDS011;47397;48.194;11.632;2023-05-27T01:29:35;9.55;;;7.57;;
61531;SDS011;47397;48.194;11.632;2023-05-27T01:30:36;10.55;;;8.35;;
61531;SDS011;47397;48.194;11.632;2023-05-27T01:31:39;11.80;;;9.05;;
61531;SDS011;47397;48.194;11.632;2023-05-27T01:32:43;10.55;;;7.95;;
61531;SDS011;47397;48.194;11.632;2023-05-27T01:33:48;12.57;;;7.68;;
61531;SDS011;47397;48.194;11.632;2023-05-27T01:34:53;9.55;;;7.55;;
61531;SDS011;47397;48.194;11.632;2023-05-27T01:35:59;9.70;;;8.00;;
61531;SDS011;47397;48.194;11.632;2023-05-27T01:37:05;11.13;;;7.97;;
61531;SDS011;47397;48.194;11.632;2023-05-27T01:38:12;10.10;;;8.45;;
61531;SDS011;47397;48.194;11.632;2023-05-27T01:39:14;11.40;;;8.52;;
61531;SDS011;47397;48.194;11.632;2023-05-27T01:40:16;9.85;;;8.27;;
61531;SDS011;47397;48.194;11.632;2023-05-27T01:41:17;11.27;;;8.45;;
61531;SDS011;47397;48.194;11.632;2023-05-27T01:42:18;10.80;;;7.82;;
61531;SDS011;47397;48.194;11.632;2023-05-27T01:43:19;11.45;;;8.20;;
61531;SDS011;47397;48.194;11.632;2023-05-27T01:44:21;9.73;;;7.75;;
61531;SDS011;47397;48.194;11.632;2023-05-27T01:45:22;10.45;;;8.02;;
61531;SDS011;47397;48.194;11.632;2023-05-27T01:46:22;10.48;;;8.27;;
61531;SDS011;47397;48.194;11.632;2023-05-27T01:47:23;11.35;;;8.25;;
61531;SDS011;47397;48.194;11.632;2023-05-27T01:48:23;11.93;;;8.43;;
61531;SDS011;47397;48.194;11.632;2023-05-27T01:49:23;14.63;;;8.02;;
61531;SDS011;47397;48.194;11.632;2023-05-27T01:50:24;11.25;;;8.13;;
61531;SDS011;47397;48.194;11.632;2023-05-27T01:51:24;14.68;;;8.20;;
61531;SDS011;47397;48.194;11.632;2023-05-27T01:52:25;9.75;;;8.70;;
61531;SDS011;47397;48.194;11.632;2023-05-27T01:53:27;10.10;;;8.18;;
61531;SDS011;47397;48.194;11.632;2023-05-27T01:54:27;10.43;;;7.88;;
61531;SDS011;47397;48.194;11.632;2023-05-27T01:55:28;9.75;;;8.13;;
61531;SDS011;47397;48.194;11.632;2023-05-27T01:56:28;10.45;;;8.43;;
61531;SDS011;47397;48.194;11.632;2023-05-27T01:57:29;10.15;;;8.48;;
61531;SDS011;47397;48.194;11.632;2023-05-27T01:58:29;10.68;;;8.75;;
61531;SDS011;47397;48.194;11.632;2023-05-27T01:59:30;10.25;;;8.38;;
61531;SDS011;47397;48.194;11.632;2023-05-27T02:00:30;9.38;;;7.97;;
61531;SDS011;47397;48.194;11.632;2023-05-27T02:01:30;10.55;;;8.27;;
61531;SDS011;47397;48.194;11.632;2023-05-27T02:02:31;11.02;;;8.43;;
61531;SDS011;47397;48.194;11.632;2023-05-27T02:03:31;10.35;;;8.50;;
61531;SDS011;47397;48.194;11.632;2023-05-27T02:04:32;10.00;;;8.80;;
61531;SDS011;47397;48.194;11.632;2023-05-27T02:05:35;9.93;;;8.07;;
61531;SDS011;47397;48.194;11.632;2023-05-27T02:06:35;9.93;;;8.18;;
61531;SDS011;47397;48.194;11.632;2023-05-27T02:07:36;11.77;;;8.82;;
61531;SDS011;47397;48.194;11.632;2023-05-27T02:08:38;11.18;;;8.43;;
61531;SDS011;47397;48.194;11.632;2023-05-27T02:09:38;10.98;;;8.45;;
61531;SDS011;47397;48.194;11.632;2023-05-27T02:10:39;8.50;;;7.40;;
61531;SDS011;47397;48.194;11.632;2023-05-27T02:11:39;12.07;;;8.40;;
61531;SDS011;47397;48.194;11.632;2023-05-27T02:12:39;10.65;;;8.75;;
61531;SDS011;47397;48.194;11.632;2023-05-27T02:13:40;10.82;;;8.20;;
61531;SDS011;47397;48.194;11.632;2023-05-27T02:14:40;9.80;;;7.82;;
61531;SDS011;47397;48.194;11.632;2023-05-27T02:15:40;11.52;;;8.13;;
61531;SDS011;47397;48.194;11.632;2023-05-27T02:16:41;9.07;;;8.07;;
61531;SDS011;47397;48.194;11.632;2023-05-27T02:17:41;9.52;;;8.07;;
61531;SDS011;47397;48.194;11.632;2023-05-27T02:18:42;11.90;;;8.18;;
61531;SDS011;47397;48.194;11.632;2023-05-27T02:19:42;11.07;;;7.88;;
61531;SDS011;47397;48.194;11.632;2023-05-27T02:20:42;10.68;;;8.60;;
61531;SDS011;47397;48.194;11.632;2023-05-27T02:21:43;11.52;;;7.78;;
61531;SDS011;47397;48.194;11.632;2023-05-27T02:22:43;12.15;;;8.48;;
61531;SDS011;47397;48.194;11.632;2023-05-27T02:23:45;10.52;;;8.35;;
61531;SDS011;47397;48.194;11.632;2023-05-27T02:24:45;11.20;;;8.52;;
61531;SDS011;47397;48.194;11.632;2023-05-27T02:25:46;9.15;;;7.93;;
61531;SDS011;47397;48.194;11.632;2023-05-27T02:26:46;10.63;;;7.85;;
61531;SDS011;47397;48.194;11.632;2023-05-27T02:27:46;10.98;;;7.60;;
61531;SDS011;47397;48.194;11.632;2023-05-27T02:28:47;10.88;;;8.57;;
61531;SDS011;47397;48.194;11.632;2023-05-27T02:29:47;9.70;;;7.82;;
61531;SDS011;47397;48.194;11.632;2023-05-27T02:30:48;10.00;;;8.05;;
61531;SDS011;47397;48.194;11.632;2023-05-27T02:31:48;12.95;;;8.30;;
61531;SDS011;47397;48.194;11.632;2023-05-27T02:32:48;12.40;;;8.73;;
61531;SDS011;47397;48.194;11.632;2023-05-27T02:33:49;11.45;;;8.82;;
61531;SDS011;47397;48.194;11.632;2023-05-27T02:34:49;10.20;;;8.05;;
61531;SDS011;47397;48.194;11.632;2023-05-27T02:35:50;10.30;;;8.25;;
61531;SDS011;47397;48.194;11.632;2023-05-27T02:36:50;10.68;;;8.18;;
61531;SDS011;47397;48.194;11.632;2023-05-27T02:37:51;9.68;;;8.50;;
61531;SDS011;47397;48.194;11.632;2023-05-27T02:38:52;9.68;;;8.23;;
61531;SDS011;47397;48.194;11.632;2023-05-27T02:39:53;9.20;;;7.93;;
61531;SDS011;47397;48.194;11.632;2023-05-27T02:40:53;10.20;;;7.93;;
61531;SDS011;47397;48.194;11.632;2023-05-27T02:41:54;10.85;;;8.40;;
61531;SDS011;47397;48.194;11.632;2023-05-27T02:42:55;11.88;;;8.60;;
61531;SDS011;47397;48.194;11.632;2023-05-27T02:43:55;9.57;;;8.30;;
61531;SDS011;47397;48.194;11.632;2023-05-27T02:44:56;10.63;;;8.75;;
61531;SDS011;47397;48.194;11.632;2023-05-27T02:45:56;9.65;;;7.95;;
61531;SDS011;47397;48.194;11.632;2023-05-27T02:46:56;11.93;;;7.85;;
61531;SDS011;47397;48.194;11.632;2023-05-27T02:47:57;10.88;;;8.45;;
61531;SDS011;47397;48.194;11.632;2023-05-27T02:48:57;13.98;;;9.25;;
61531;SDS011;47397;48.194;11.632;2023-05-27T02:49:58;12.70;;;8.70;;
61531;SDS011;47397;48.194;11.632;2023-05-27T02:50:58;11.52;;;8.68;;
61531;SDS011;47397;48.194;11.632;2023-05-27T02:51:58;9.52;;;8.20;;
61531;SDS011;47397;48.194;11.632;2023-05-27T02:52:59;10.98;;;8.38;;
61531;SDS011;47397;48.194;11.632;2023-05-27T02:54:00;12.13;;;9.07;;
61531;SDS011;47397;48.194;11.632;2023-05-27T02:55:01;11.57;;;9.05;;
61531;SDS011;47397;48.194;11.632;2023-05-27T02:56:01;12.13;;;9.18;;
61531;SDS011;47397;48.194;11.632;2023-05-27T02:57:02;10.15;;;8.23;;
61531;SDS011;47397;48.194;11.632;2023-05-27T02:58:02;10.30;;;7.95;;
61531;SDS011;47397;48.194;11.632;2023-05-27T02:59:03;9.93;;;8.38;;
61531;SDS011;47397;48.194;11.632;2023-05-27T03:00:03;12.88;;;8.73;;
61531;SDS011;47397;48.194;11.632;2023-05-27T03:01:05;10.18;;;8.38;;
61531;SDS011;47397;48.194;11.632;2023-05-27T03:02:05;10.10;;;8.35;;
61531;SDS011;47397;48.194;11.632;2023-05-27T03:03:05;12.15;;;9.40;;
61531;SDS011;47397;48.194;11.632;2023-05-27T03:04:06;10.07;;;8.68;;
61531;SDS011;47397;48.194;11.632;2023-05-27T03:05:06;11.98;;;9.10;;
61531;SDS011;47397;48.194;11.632;2023-05-27T03:06:07;10.90;;;9.05;;
61531;SDS011;47397;48.194;11.632;2023-05-27T03:07:07;10.23;;;8.02;;
61531;SDS011;47397;48.194;11.632;2023-05-27T03:08:08;10.05;;;8.40;;
61531;SDS011;47397;48.194;11.632;2023-05-27T03:09:10;10.82;;;8.45;;
61531;SDS011;47397;48.194;11.632;2023-05-27T03:10:10;11.05;;;8.82;;
61531;SDS011;47397;48.194;11.632;2023-05-27T03:11:10;10.65;;;8.52;;
61531;SDS011;47397;48.194;11.632;2023-05-27T03:12:11;11.82;;;8.60;;
61531;SDS011;47397;48.194;11.632;2023-05-27T03:13:11;10.82;;;7.80;;
61531;SDS011;47397;48.194;11.632;2023-05-27T03:14:12;10.45;;;8.80;;
61531;SDS011;47397;48.194;11.632;2023-05-27T03:15:12;11.73;;;8.63;;
61531;SDS011;47397;48.194;11.632;2023-05-27T03:16:12;11.68;;;8.85;;
61531;SDS011;47397;48.194;11.632;2023-05-27T03:17:13;11.88;;;8.73;;
61531;SDS011;47397;48.194;11.632;2023-05-27T03:18:13;11.82;;;9.68;;
61531;SDS011;47397;48.194;11.632;2023-05-27T03:19:14;12.77;;;9.07;;
61531;SDS011;47397;48.194;11.632;2023-05-27T03:20:14;9.55;;;8.55;;
61531;SDS011;47397;48.194;11.632;2023-05-27T03:21:14;10.60;;;8.48;;
61531;SDS011;47397;48.194;11.632;2023-05-27T03:22:15;9.93;;;8.35;;
61531;SDS011;47397;48.194;11.632;2023-05-27T03:23:15;12.27;;;9.07;;
61531;SDS011;47397;48.194;11.632;2023-05-27T03:24:17;12.52;;;8.82;;
61531;SDS011;47397;48.194;11.632;2023-05-27T03:25:18;10.90;;;8.60;;
61531;SDS011;47397;48.194;11.632;2023-05-27T03:26:18;11.13;;;8.38;;
61531;SDS011;47397;48.194;11.632;2023-05-27T03:27:18;10.77;;;8.50;;
61531;SDS011;47397;48.194;11.632;2023-05-27T03:28:19;11.55;;;8.65;;
61531;SDS011;47397;48.194;11.632;2023-05-27T03:29:19;12.00;;;8.70;;
61531;SDS011;47397;48.194;11.632;2023-05-27T03:30:20;11.02;;;9.43;;
61531;SDS011;47397;48.194;11.632;2023-05-27T03:31:20;11.07;;;8.80;;
61531;SDS011;47397;48.194;11.632;2023-05-27T03:32:20;10.77;;;8.73;;
61531;SDS011;47397;48.194;11.632;2023-05-27T03:33:21;10.63;;;8.70;;
61531;SDS011;47397;48.194;11.632;2023-05-27T03:34:22;11.10;;;8.60;;
61531;SDS011;47397;48.194;11.632;2023-05-27T03:35:22;12.85;;;9.25;;
61531;SDS011;47397;48.194;11.632;2023-05-27T03:36:22;12.48;;;9.25;;
61531;SDS011;47397;48.194;11.632;2023-05-27T03:39:00;14.30;;;8.95;;
61531;SDS011;47397;48.194;11.632;2023-05-27T03:40:03;11.35;;;9.10;;
61531;SDS011;47397;48.194;11.632;2023-05-27T03:41:04;11.20;;;8.85;;
61531;SDS011;47397;48.194;11.632;2023-05-27T03:42:04;11.57;;;9.25;;
61531;SDS011;47397;48.194;11.632;2023-05-27T03:43:05;12.35;;;9.23;;
61531;SDS011;47397;48.194;11.632;2023-05-27T03:44:05;10.65;;;8.13;;
61531;SDS011;47397;48.194;11.632;2023-05-27T03:45:06;12.65;;;9.32;;
61531;SDS011;47397;48.194;11.632;2023-05-27T03:46:07;10.13;;;8.30;;
61531;SDS011;47397;48.194;11.632;2023-05-27T03:47:07;9.98;;;8.68;;
61531;SDS011;47397;48.194;11.632;2023-05-27T03:48:08;10.85;;;8.30;;
61531;SDS011;47397;48.194;11.632;2023-05-27T03:49:08;12.07;;;8.57;;
61531;SDS011;47397;48.194;11.632;2023-05-27T03:50:09;12.35;;;8.75;;
61531;SDS011;47397;48.194;11.632;2023-05-27T03:51:10;11.32;;;8.73;;
61531;SDS011;47397;48.194;11.632;2023-05-27T03:52:10;10.00;;;8.73;;
61531;SDS011;47397;48.194;11.632;2023-05-27T03:53:11;10.25;;;8.23;;
61531;SDS011;47397;48.194;11.632;2023-05-27T03:54:11;10.98;;;8.75;;
61531;SDS011;47397;48.194;11.632;2023-05-27T03:55:13;13.30;;;8.75;;
61531;SDS011;47397;48.194;11.632;2023-05-27T03:56:13;11.00;;;8.98;;
61531;SDS011;47397;48.194;11.632;2023-05-27T03:57:14;10.02;;;8.27;;
61531;SDS011;47397;48.194;11.632;2023-05-27T03:58:14;10.75;;;8.35;;
61531;SDS011;47397;48.194;11.632;2023-05-27T03:59:14;11.55;;;8.88;;
61531;SDS011;47397;48.194;11.632;2023-05-27T04:00:15;10.60;;;8.68;;
61531;SDS011;47397;48.194;11.632;2023-05-27T04:01:16;12.75;;;8.73;;
61531;SDS011;47397;48.194;11.632;2023-05-27T04:02:16;11.70;;;8.82;;
61531;SDS011;47397;48.194;11.632;2023-05-27T04:03:17;12.23;;;9.13;;
61531;SDS011;47397;48.194;11.632;2023-05-27T04:04:17;11.07;;;8.90;;
61531;SDS011;47397;48.194;11.632;2023-05-27T04:05:18;10.68;;;8.55;;
61531;SDS011;47397;48.194;11.632;2023-05-27T04:06:18;10.88;;;8.98;;
61531;SDS011;47397;48.194;11.632;2023-05-27T04:07:18;11.07;;;8.55;;
61531;SDS011;47397;48.194;11.632;2023-05-27T04:08:19;10.95;;;8.70;;
61531;SDS011;47397;48.194;11.632;2023-05-27T04:09:19;10.93;;;8.77;;
61531;SDS011;47397;48.194;11.632;2023-05-27T04:10:21;10.45;;;8.50;;
61531;SDS011;47397;48.194;11.632;2023-05-27T04:11:21;11.90;;;9.40;;
61531;SDS011;47397;48.194;11.632;2023-05-27T04:12:22;12.32;;;9.13;;
61531;SDS011;47397;48.194;11.632;2023-05-27T04:13:22;11.63;;;8.77;;
61531;SDS011;47397;48.194;11.632;2023-05-27T04:14:23;10.73;;;9.55;;
61531;SDS011;47397;48.194;11.632;2023-05-27T04:15:23;10.68;;;8.82;;
61531;SDS011;47397;48.194;11.632;2023-05-27T04:16:24;9.93;;;8.18;;
61531;SDS011;47397;48.194;11.632;2023-05-27T04:17:24;9.73;;;8.57;;
61531;SDS011;47397;48.194;11.632;2023-05-27T04:18:25;11.55;;;9.00;;
61531;SDS011;47397;48.194;11.632;2023-05-27T04:19:25;10.80;;;9.02;;
61531;SDS011;47397;48.194;11.632;2023-05-27T04:20:26;11.98;;;9.15;;
61531;SDS011;47397;48.194;11.632;2023-05-27T04:21:26;10.02;;;8.30;;
61531;SDS011;47397;48.194;11.632;2023-05-27T04:22:26;11.10;;;9.30;;
61531;SDS011;47397;48.194;11.632;2023-05-27T04:23:27;10.52;;;8.65;;
61531;SDS011;47397;48.194;11.632;2023-05-27T04:24:27;13.00;;;8.93;;
61531;SDS011;47397;48.194;11.632;2023-05-27T04:25:29;11.65;;;9.02;;
61531;SDS011;47397;48.194;11.632;2023-05-27T04:26:29;11.57;;;8.75;;
61531;SDS011;47397;48.194;11.632;2023-05-27T04:27:30;13.63;;;9.27;;
61531;SDS011;47397;48.194;11.632;2023-05-27T04:28:30;11.00;;;8.38;;
61531;SDS011;47397;48.194;11.632;2023-05-27T04:29:30;11.13;;;8.70;;
61531;SDS011;47397;48.194;11.632;2023-05-27T04:30:31;11.75;;;8.13;;
61531;SDS011;47397;48.194;11.632;2023-05-27T04:31:31;13.50;;;8.88;;
61531;SDS011;47397;48.194;11.632;2023-05-27T04:32:32;11.25;;;8.70;;
61531;SDS011;47397;48.194;11.632;2023-05-27T04:33:32;12.43;;;8.45;;
61531;SDS011;47397;48.194;11.632;2023-05-27T04:34:33;8.88;;;7.70;;
61531;SDS011;47397;48.194;11.632;2023-05-27T04:35:33;10.45;;;8.85;;
61531;SDS011;47397;48.194;11.632;2023-05-27T04:36:33;10.00;;;8.95;;
61531;SDS011;47397;48.194;11.632;2023-05-27T04:37:34;11.75;;;9.50;;
61531;SDS011;47397;48.194;11.632;2023-05-27T04:38:35;9.93;;;7.97;;
61531;SDS011;47397;48.194;11.632;2023-05-27T04:39:35;9.75;;;8.43;;
61531;SDS011;47397;48.194;11.632;2023-05-27T04:40:37;9.90;;;8.85;;
61531;SDS011;47397;48.194;11.632;2023-05-27T04:41:37;11.82;;;8.60;;
61531;SDS011;47397;48.194;11.632;2023-05-27T04:42:38;11.95;;;8.65;;
61531;SDS011;47397;48.194;11.632;2023-05-27T04:43:38;9.82;;;8.23;;
61531;SDS011;47397;48.194;11.632;2023-05-27T04:44:38;9.93;;;8.55;;
61531;SDS011;47397;48.194;11.632;2023-05-27T04:45:39;11.20;;;8.30;;
61531;SDS011;47397;48.194;11.632;2023-05-27T04:46:40;12.30;;;9.05;;
61531;SDS011;47397;48.194;11.632;2023-05-27T04:47:40;11.48;;;8.48;;
61531;SDS011;47397;48.194;11.632;2023-05-27T04:48:40;10.95;;;8.52;;
61531;SDS011;47397;48.194;11.632;2023-05-27T04:49:41;12.07;;;8.57;;
61531;SDS011;47397;48.194;11.632;2023-05-27T04:50:41;9.85;;;8.85;;
61531;SDS011;47397;48.194;11.632;2023-05-27T04:51:42;12.15;;;8.57;;
61531;SDS011;47397;48.194;11.632;2023-05-27T04:52:42;10.77;;;8.57;;
61531;SDS011;47397;48.194;11.632;2023-05-27T04:53:43;11.07;;;8.40;;
61531;SDS011;47397;48.194;11.632;2023-05-27T04:54:43;10.50;;;8.40;;
61531;SDS011;47397;48.194;11.632;2023-05-27T04:55:45;10.63;;;8.65;;
61531;SDS011;47397;48.194;11.632;2023-05-27T04:56:45;11.23;;;8.55;;
61531;SDS011;47397;48.194;11.632;2023-05-27T04:57:46;11.65;;;8.15;;
61531;SDS011;47397;48.194;11.632;2023-05-27T04:58:46;11.85;;;8.00;;
61531;SDS011;47397;48.194;11.632;2023-05-27T04:59:46;12.05;;;8.60;;
61531;SDS011;47397;48.194;11.632;2023-05-27T05:00:47;11.18;;;8.32;;
61531;SDS011;47397;48.194;11.632;2023-05-27T05:01:47;11.70;;;8.63;;
61531;SDS011;47397;48.194;11.632;2023-05-27T05:02:48;8.85;;;7.95;;
61531;SDS011;47397;48.194;11.632;2023-05-27T05:03:48;10.48;;;7.70;;
61531;SDS011;47397;48.194;11.632;2023-05-27T05:04:49;11.88;;;8.50;;
61531;SDS011;47397;48.194;11.632;2023-05-27T05:05:49;11.60;;;8.60;;
61531;SDS011;47397;48.194;11.632;2023-05-27T05:06:50;10.52;;;7.78;;
61531;SDS011;47397;48.194;11.632;2023-05-27T05:07:51;9.35;;;8.18;;
61531;SDS011;47397;48.194;11.632;2023-05-27T05:08:51;9.15;;;8.05;;
61531;SDS011;47397;48.194;11.632;2023-05-27T05:09:52;10.88;;;8.27;;
61531;SDS011;47397;48.194;11.632;2023-05-27T05:10:53;11.40;;;8.25;;
61531;SDS011;47397;48.194;11.632;2023-05-27T05:11:54;11.07;;;8.75;;
61531;SDS011;47397;48.194;11.632;2023-05-27T05:12:54;11.10;;;8.23;;
61531;SDS011;47397;48.194;11.632;2023-05-27T05:13:54;10.25;;;7.88;;
61531;SDS011;47397;48.194;11.632;2023-05-27T05:14:55;11.43;;;8.57;;
61531;SDS011;47397;48.194;11.632;2023-05-27T05:15:55;11.75;;;8.32;;
61531;SDS011;47397;48.194;11.632;2023-05-27T05:16:56;9.57;;;8.55;;
61531;SDS011;47397;48.194;11.632;2023-05-27T05:17:56;8.85;;;7.85;;
61531;SDS011;47397;48.194;11.632;2023-05-27T05:18:57;10.40;;;7.63;;
61531;SDS011;47397;48.194;11.632;2023-05-27T05:19:57;8.90;;;7.45;;
61531;SDS011;47397;48.194;11.632;2023-05-27T05:20:57;10.98;;;7.38;;
61531;SDS011;47397;48.194;11.632;2023-05-27T05:21:58;9.52;;;7.90;;
61531;SDS011;47397;48.194;11.632;2023-05-27T05:22:58;11.38;;;7.32;;
61531;SDS011;47397;48.194;11.632;2023-05-27T05:23:58;10.25;;;7.65;;
61531;SDS011;47397;48.194;11.632;2023-05-27T05:24:59;10.18;;;7.60;;
61531;SDS011;47397;48.194;11.632;2023-05-27T05:26:01;10.55;;;7.47;;
61531;SDS011;47397;48.194;11.632;2023-05-27T05:27:01;10.85;;;7.10;;
61531;SDS011;47397;48.194;11.632;2023-05-27T05:28:02;7.78;;;6.82;;
61531;SDS011;47397;48.194;11.632;2023-05-27T05:29:02;9.80;;;7.00;;
61531;SDS011;47397;48.194;11.632;2023-05-27T05:30:03;8.57;;;6.85;;
61531;SDS011;47397;48.194;11.632;2023-05-27T05:31:04;10.38;;;7.20;;
61531;SDS011;47397;48.194;11.632;2023-05-27T05:32:06;9.13;;;6.55;;
61531;SDS011;47397;48.194;11.632;2023-05-27T05:33:06;9.68;;;7.00;;
61531;SDS011;47397;48.194;11.632;2023-05-27T05:34:07;9.32;;;7.38;;
61531;SDS011;47397;48.194;11.632;2023-05-27T05:35:07;10.77;;;6.90;;
61531;SDS011;47397;48.194;11.632;2023-05-27T05:36:08;10.60;;;7.00;;
61531;SDS011;47397;48.194;11.632;2023-05-27T05:37:09;11.10;;;7.35;;
61531;SDS011;47397;48.194;11.632;2023-05-27T05:38:09;10.57;;;7.05;;
61531;SDS011;47397;48.194;11.632;2023-05-27T05:39:09;8.60;;;6.82;;
61531;SDS011;47397;48.194;11.632;2023-05-27T05:40:10;11.88;;;7.20;;
61531;SDS011;47397;48.194;11.632;2023-05-27T05:41:12;10.73;;;7.30;;
61531;SDS011;47397;48.194;11.632;2023-05-27T05:42:12;9.38;;;6.70;;
61531;SDS011;47397;48.194;11.632;2023-05-27T05:43:13;10.13;;;6.65;;
61531;SDS011;47397;48.194;11.632;2023-05-27T05:44:14;9.65;;;6.55;;
61531;SDS011;47397;48.194;11.632;2023-05-27T05:45:15;9.18;;;7.15;;
61531;SDS011;47397;48.194;11.632;2023-05-27T05:46:15;10.50;;;6.65;;
61531;SDS011;47397;48.194;11.632;2023-05-27T05:47:15;7.63;;;6.70;;
61531;SDS011;47397;48.194;11.632;2023-05-27T05:48:16;9.02;;;6.82;;
61531;SDS011;47397;48.194;11.632;2023-05-27T05:49:17;12.68;;;7.13;;
61531;SDS011;47397;48.194;11.632;2023-05-27T05:50:18;9.07;;;6.30;;
61531;SDS011;47397;48.194;11.632;2023-05-27T05:51:18;10.27;;;7.05;;
61531;SDS011;47397;48.194;11.632;2023-05-27T05:52:18;10.55;;;6.80;;
61531;SDS011;47397;48.194;11.632;2023-05-27T05:53:19;7.97;;;6.18;;
61531;SDS011;47397;48.194;11.632;2023-05-27T05:54:19;8.55;;;6.32;;
61531;SDS011;47397;48.194;11.632;2023-05-27T05:55:20;8.50;;;6.40;;
61531;SDS011;47397;48.194;11.632;2023-05-27T05:56:21;9.02;;;6.28;;
61531;SDS011;47397;48.194;11.632;2023-05-27T05:57:22;9.27;;;7.03;;
61531;SDS011;47397;48.194;11.632;2023-05-27T05:58:22;9.50;;;6.75;;
61531;SDS011;47397;48.194;11.632;2023-05-27T05:59:23;10.98;;;6.63;;
61531;SDS011;47397;48.194;11.632;2023-05-27T06:00:23;8.75;;;6.57;;